首页
METAR-TAF:

METAR-TAF

机场 :

菲利普戈尔德森国际机场

伯利兹, 伯利兹

纬度: 17-32N, 经度: 088-18W, 海拔: 5米

当前天气观测

该预报发布于16分钟前的21:00 UTC
风速8节,风向东转东南
温度 30°C
湿度 75%
气压 1013 hPa
能见度10公里或以上
多云层高于2300英尺

METAR: MZBZ 182100Z 11008KT 9999 BKN023 30/25 A2991 Q1013 NOSIG

时间: 15:16 (21:16 UTC)

预报

该预报发布于5小时和56分钟前的15:20 UTC
预报有效从18日的 18点(UTC)到 19日的 18点(UTC)
风速8节,风向东转东南
能见度10公里或以上
散云层高于2200英尺

TAF: MZBZ 181520Z 1818/1918 11008KT 9999 SCT022

超过4000个机场的气象观测和天气预报(METAR&TAF报告)。

可查询的气象台以黄色和红色小点在地图上表示。

将鼠标移到小点上方,可查看气象台名称。

然后点击查看天气观测和预报。

如需切换地图:点击带黑十字的绿色按钮放大地图;点击带横线的绿色按钮缩小地图;或者点击绿色箭头查看邻近地区的地图。


METAR-TAF: